createdAt,value
2018-01-15T00:01:32.150Z,98456.64
2018-01-15T00:04:00.462Z,98453.46
2018-01-15T00:06:29.563Z,98446.83
2018-01-15T00:08:57.905Z,98443.38
2018-01-15T00:11:26.226Z,98438.41
2018-01-15T00:13:55.316Z,98434.55
2018-01-15T00:16:23.646Z,98434.20
2018-01-15T00:18:51.970Z,98427.97
2018-01-15T00:21:21.078Z,98436.06
2018-01-15T00:23:50.176Z,98428.41
2018-01-15T00:26:18.521Z,98430.44
2018-01-15T00:28:46.864Z,98424.05
2018-01-15T00:31:15.207Z,98430.08
2018-01-15T00:33:43.541Z,98420.25
2018-01-15T00:36:11.887Z,98411.09
2018-01-15T00:38:40.228Z,98399.81
2018-01-15T00:41:09.330Z,98398.27
2018-01-15T00:43:37.670Z,98390.24
2018-01-15T00:46:05.985Z,98385.34
2018-01-15T00:48:35.057Z,98375.47
2018-01-15T00:51:03.384Z,98372.42
2018-01-15T00:53:32.520Z,98367.36
2018-01-15T00:56:00.878Z,98369.77
2018-01-15T00:58:29.198Z,98363.34
2018-01-15T01:00:57.553Z,98368.09
2018-01-15T01:03:25.899Z,98367.02
2018-01-15T01:05:54.224Z,98365.07
2018-01-15T01:08:23.377Z,98358.88
2018-01-15T01:10:51.689Z,98351.54
2018-01-15T01:13:20.017Z,98354.15
2018-01-15T01:15:48.350Z,98354.39
2018-01-15T01:18:16.672Z,98357.64
2018-01-15T01:20:45.020Z,98348.89
2018-01-15T01:23:13.354Z,98357.61
2018-01-15T01:25:41.695Z,98354.96
2018-01-15T01:28:10.033Z,98350.47
2018-01-15T01:30:38.379Z,98340.90
2018-01-15T01:33:06.722Z,98344.17
2018-01-15T01:35:35.850Z,98336.44
2018-01-15T01:38:04.174Z,98341.11
2018-01-15T01:40:32.532Z,98333.22
2018-01-15T01:43:00.869Z,98334.08
2018-01-15T01:45:29.201Z,98340.26
2018-01-15T01:47:57.529Z,98326.92
2018-01-15T01:50:25.858Z,98320.81
2018-01-15T01:52:54.195Z,98324.97
2018-01-15T01:55:22.539Z,98317.93
2018-01-15T01:57:50.870Z,98317.80
2018-01-15T02:00:19.210Z,98321.23
2018-01-15T02:02:47.545Z,98318.37
2018-01-15T02:05:15.883Z,98314.84
2018-01-15T02:07:44.211Z,98309.37
2018-01-15T02:10:12.535Z,98310.06
2018-01-15T02:12:40.861Z,98308.60
2018-01-15T02:15:09.973Z,98307.30
2018-01-15T02:17:38.309Z,98303.69
2018-01-15T02:20:06.688Z,98301.32
2018-01-15T02:22:35.033Z,98296.81
2018-01-15T02:25:03.372Z,98296.05
2018-01-15T02:27:31.689Z,98302.80
2018-01-15T02:30:00.027Z,98292.65
2018-01-15T02:32:29.149Z,98291.48
2018-01-15T02:34:57.489Z,98289.92
2018-01-15T02:37:25.812Z,98284.13
2018-01-15T02:39:55.372Z,98287.75
2018-01-15T02:42:23.696Z,98279.80
2018-01-15T02:44:52.036Z,98280.39
2018-01-15T02:47:20.376Z,98277.61
2018-01-15T02:49:48.715Z,98280.22
2018-01-15T02:52:17.047Z,98275.67
2018-01-15T02:54:45.370Z,98273.14
2018-01-15T02:57:13.700Z,98273.04
2018-01-15T02:59:42.026Z,98277.55
2018-01-15T03:02:10.373Z,98261.20
2018-01-15T03:04:38.690Z,98256.58
2018-01-15T03:07:07.033Z,98253.55
2018-01-15T03:09:36.521Z,98251.79
2018-01-15T03:12:04.858Z,98247.13
2018-01-15T03:14:33.182Z,98244.70
2018-01-15T03:17:01.506Z,98244.38
2018-01-15T03:19:29.831Z,98239.13
2018-01-15T03:21:58.150Z,98231.13
2018-01-15T03:24:26.480Z,98232.64
2018-01-15T03:26:54.879Z,98226.34
2018-01-15T03:29:23.981Z,98222.23
2018-01-15T03:31:52.311Z,98212.41
2018-01-15T03:34:20.634Z,98206.77
2018-01-15T03:36:49.726Z,98200.05
2018-01-15T03:39:18.910Z,98190.41
2018-01-15T03:41:47.424Z,98195.86
2018-01-15T03:44:15.742Z,98192.72
2018-01-15T03:46:44.062Z,98186.94
2018-01-15T03:49:13.151Z,98187.83
2018-01-15T03:51:42.255Z,98184.90
2018-01-15T03:54:10.580Z,98177.89
2018-01-15T03:56:38.906Z,98179.92
2018-01-15T03:59:07.999Z,98176.75
2018-01-15T04:01:36.345Z,98185.70
2018-01-15T04:04:04.678Z,98174.47
2018-01-15T04:06:33.006Z,98167.44
2018-01-15T04:09:02.284Z,98167.23
2018-01-15T04:11:30.627Z,98166.88
2018-01-15T04:13:59.718Z,98164.00
2018-01-15T04:16:28.042Z,98157.69
2018-01-15T04:18:57.168Z,98151.08
2018-01-15T04:21:25.497Z,98154.41
2018-01-15T04:23:53.826Z,98139.88
2018-01-15T04:26:22.170Z,98137.97
2018-01-15T04:28:50.529Z,98136.27
2018-01-15T04:31:18.862Z,98137.88
2018-01-15T04:33:47.972Z,98138.38
2018-01-15T04:36:16.308Z,98130.45
2018-01-15T04:38:44.746Z,98123.37
2018-01-15T04:41:13.169Z,98119.98
2018-01-15T04:43:41.512Z,98123.12
2018-01-15T04:46:09.834Z,98118.37
2018-01-15T04:48:38.162Z,98120.32
2018-01-15T04:51:06.493Z,98123.48
2018-01-15T04:53:34.822Z,98114.80
2018-01-15T04:56:03.150Z,98106.11
2018-01-15T04:58:31.474Z,98099.92
2018-01-15T05:00:59.794Z,98097.98
2018-01-15T05:03:29.651Z,98092.97
2018-01-15T05:05:57.974Z,98095.36
2018-01-15T05:08:26.290Z,98092.09
2018-01-15T05:10:55.392Z,98083.80
2018-01-15T05:13:24.492Z,98080.91
2018-01-15T05:15:52.830Z,98078.54
2018-01-15T05:18:21.208Z,98070.90
2018-01-15T05:20:49.555Z,98066.38
2018-01-15T05:23:17.877Z,98063.91
2018-01-15T05:25:46.206Z,98064.25
2018-01-15T05:28:14.538Z,98066.80
2018-01-15T05:30:42.889Z,98054.98
2018-01-15T05:33:11.221Z,98055.41
2018-01-15T05:35:39.549Z,98055.18
2018-01-15T05:38:07.887Z,97975.21
2018-01-15T05:40:36.223Z,98045.11
2018-01-15T05:43:05.306Z,98050.28
2018-01-15T05:45:33.629Z,98041.97
2018-01-15T05:48:01.964Z,98030.17
2018-01-15T05:50:30.320Z,98042.30
2018-01-15T05:52:58.664Z,98046.38
2018-01-15T05:55:26.996Z,98047.30
2018-01-15T05:57:55.326Z,98043.63
2018-01-15T06:00:23.679Z,98053.21
2018-01-15T06:02:52.048Z,98047.78
2018-01-15T06:05:20.356Z,98043.50
2018-01-15T06:07:48.677Z,98040.23
2018-01-15T06:10:17.010Z,98030.70
2018-01-15T06:12:45.336Z,98027.74
2018-01-15T06:15:13.674Z,98027.66
2018-01-15T06:17:41.998Z,98021.43
2018-01-15T06:20:10.337Z,98022.81
2018-01-15T06:22:38.668Z,98017.97
2018-01-15T06:25:07.776Z,98025.03
2018-01-15T06:27:36.098Z,98021.48
2018-01-15T06:30:04.458Z,98023.67
2018-01-15T06:32:32.787Z,98013.57
2018-01-15T06:35:03.135Z,98019.98
2018-01-15T06:37:31.454Z,98024.00
2018-01-15T06:39:59.788Z,98010.96
2018-01-15T06:42:28.106Z,98019.85
2018-01-15T06:44:56.426Z,98016.88
2018-01-15T06:47:24.777Z,98000.78
2018-01-15T06:49:53.118Z,97994.92
2018-01-15T06:52:21.453Z,97992.52
2018-01-15T06:54:49.800Z,97995.02
2018-01-15T06:57:18.134Z,97992.30
2018-01-15T06:59:46.464Z,97984.00
2018-01-15T07:02:15.059Z,97986.31
2018-01-15T07:04:43.400Z,97984.30
2018-01-15T07:07:11.705Z,97977.44
2018-01-15T07:09:40.038Z,97972.34
2018-01-15T07:12:08.370Z,97973.44
2018-01-15T07:14:36.706Z,97966.61
2018-01-15T07:17:05.039Z,97973.06
2018-01-15T07:19:33.366Z,97979.68
2018-01-15T07:22:01.690Z,97980.44
2018-01-15T07:24:30.774Z,97978.59
2018-01-15T07:26:59.085Z,97978.91
2018-01-15T07:29:27.404Z,97978.61
2018-01-15T07:31:55.747Z,97974.77
2018-01-15T07:34:24.084Z,97969.08
2018-01-15T07:36:52.424Z,97959.94
2018-01-15T07:39:20.747Z,97957.50
2018-01-15T07:41:49.123Z,97964.06
2018-01-15T07:44:17.451Z,97960.88
2018-01-15T07:46:45.793Z,97965.14
2018-01-15T07:49:14.119Z,97956.21
2018-01-15T07:51:42.444Z,97960.11
2018-01-15T07:54:11.510Z,97950.29
2018-01-15T07:56:39.853Z,97959.20
2018-01-15T07:59:08.192Z,97952.41
2018-01-15T08:01:37.290Z,97944.58
2018-01-15T08:04:05.712Z,97941.93
2018-01-15T08:06:34.042Z,97935.50
2018-01-15T08:09:02.380Z,97924.82
2018-01-15T08:11:30.710Z,97921.94
2018-01-15T08:13:59.846Z,97914.98
2018-01-15T08:16:28.189Z,97921.27
2018-01-15T08:18:56.514Z,97916.39
2018-01-15T08:21:24.855Z,97905.95
2018-01-15T08:23:54.107Z,97904.81
2018-01-15T08:26:22.434Z,97903.59
2018-01-15T08:28:50.770Z,97907.66
2018-01-15T08:31:19.105Z,97916.14
2018-01-15T08:33:47.435Z,97912.31
2018-01-15T08:36:16.530Z,97907.46
2018-01-15T08:38:44.854Z,97910.84
2018-01-15T08:41:13.173Z,97902.80
2018-01-15T08:43:41.882Z,97897.41
2018-01-15T08:46:10.207Z,97892.42
2018-01-15T08:48:38.529Z,97886.03
2018-01-15T08:51:07.655Z,97882.28
2018-01-15T08:53:35.971Z,97875.09
2018-01-15T08:56:04.316Z,97876.09
2018-01-15T08:58:32.705Z,97874.41
2018-01-15T09:01:01.038Z,97872.95
2018-01-15T09:03:30.300Z,97870.59
2018-01-15T09:05:58.646Z,97866.58
2018-01-15T09:08:26.962Z,97858.95
2018-01-15T09:10:55.291Z,97853.49
2018-01-15T09:13:23.624Z,97850.88
2018-01-15T09:15:51.975Z,97849.95
2018-01-15T09:18:20.298Z,97843.63
2018-01-15T09:20:49.437Z,97839.27
2018-01-15T09:23:17.777Z,97836.49
2018-01-15T09:25:46.093Z,97831.16
2018-01-15T09:28:14.405Z,97826.81
2018-01-15T09:30:42.743Z,97824.26
2018-01-15T09:33:11.769Z,97827.23
2018-01-15T09:35:41.649Z,97823.59
2018-01-15T09:38:09.996Z,97819.98
2018-01-15T09:40:38.331Z,97821.66
2018-01-15T09:43:06.681Z,97818.66
2018-01-15T09:45:35.023Z,97813.05
2018-01-15T09:48:03.366Z,97803.96
2018-01-15T09:50:31.712Z,97806.64
2018-01-15T09:53:00.053Z,97795.69
2018-01-15T09:55:29.238Z,97793.68
2018-01-15T09:57:57.558Z,97795.87
2018-01-15T10:00:25.940Z,97798.30
2018-01-15T10:02:54.292Z,97798.50
2018-01-15T10:05:22.621Z,97788.89
2018-01-15T10:07:50.940Z,97787.19
2018-01-15T10:10:20.038Z,97782.88
2018-01-15T10:12:48.659Z,97779.82
2018-01-15T10:15:17.000Z,97772.00
2018-01-15T10:17:46.102Z,97759.84
2018-01-15T10:20:14.454Z,97761.11
2018-01-15T10:22:42.776Z,97746.50
2018-01-15T10:25:12.464Z,97730.95
2018-01-15T10:27:40.806Z,97727.23
2018-01-15T10:30:09.143Z,97726.67
2018-01-15T10:32:37.450Z,97721.84
2018-01-15T10:35:05.766Z,97708.88
2018-01-15T10:37:34.104Z,97705.72
2018-01-15T10:40:02.430Z,97707.82
2018-01-15T10:42:31.575Z,97699.08
2018-01-15T10:44:59.921Z,97686.92
2018-01-15T10:47:28.305Z,97684.38
2018-01-15T10:49:56.643Z,97681.97
2018-01-15T10:52:24.991Z,97676.87
2018-01-15T10:54:53.547Z,97669.16
2018-01-15T10:57:22.732Z,97657.61
2018-01-15T10:59:51.077Z,97650.03
2018-01-15T11:02:19.395Z,97655.28
2018-01-15T11:04:47.727Z,97660.56
2018-01-15T11:07:16.054Z,97647.00
2018-01-15T11:09:44.382Z,97630.53
2018-01-15T11:12:12.702Z,97627.53
2018-01-15T11:14:41.086Z,97618.31
2018-01-15T11:17:09.545Z,97607.78
2018-01-15T11:22:06.087Z,97586.13
2018-01-15T11:24:34.424Z,97590.22
2018-01-15T11:27:02.763Z,97583.00
2018-01-15T11:29:31.114Z,97580.00
2018-01-15T11:32:00.219Z,97586.67
2018-01-15T11:34:29.169Z,97573.17
2018-01-15T11:36:57.508Z,97578.84
2018-01-15T11:39:26.575Z,97567.09
2018-01-15T11:41:54.914Z,97561.59
2018-01-15T11:44:23.246Z,97550.74
2018-01-15T11:46:51.592Z,97537.70
2018-01-15T11:49:19.940Z,97543.65
2018-01-15T11:51:48.276Z,97533.13
2018-01-15T11:54:16.629Z,97531.30
2018-01-15T11:56:45.206Z,97525.70
2018-01-15T11:59:13.530Z,97522.02
2018-01-15T12:01:41.868Z,97514.73
2018-01-15T12:04:10.966Z,97512.02
2018-01-15T12:06:40.068Z,97503.17
2018-01-15T12:09:08.399Z,97489.16
2018-01-15T12:11:36.755Z,97484.31
2018-01-15T12:14:05.090Z,97473.23
2018-01-15T12:16:33.425Z,97463.36
2018-01-15T12:19:01.756Z,97450.03
2018-01-15T12:21:30.090Z,97451.42
2018-01-15T12:23:58.406Z,97445.83
2018-01-15T12:26:26.746Z,97441.13
2018-01-15T12:28:55.105Z,97442.19
2018-01-15T12:31:23.416Z,97427.76
2018-01-15T12:33:51.751Z,97429.38
2018-01-15T12:36:20.116Z,97418.94
2018-01-15T12:38:48.462Z,97413.16
2018-01-15T12:41:16.800Z,97401.80
2018-01-15T12:43:45.152Z,97395.06
2018-01-15T12:46:13.490Z,97387.52
2018-01-15T12:48:41.836Z,97377.49
2018-01-15T12:51:10.990Z,97373.50
2018-01-15T12:53:40.854Z,97369.00
2018-01-15T12:56:09.201Z,97350.06
2018-01-15T12:58:37.536Z,97345.47
2018-01-15T13:01:05.985Z,97340.92
2018-01-15T13:03:41.209Z,97335.77
2018-01-15T13:06:11.043Z,97334.08
2018-01-15T13:11:42.830Z,97309.06
2018-01-15T13:14:11.179Z,97296.49
2018-01-15T13:16:41.804Z,97285.95
2018-01-15T13:19:10.127Z,97275.05
2018-01-15T13:21:38.457Z,97264.94
2018-01-15T13:24:06.795Z,97260.75
2018-01-15T13:26:35.182Z,97258.68
2018-01-15T13:29:03.515Z,97244.38
2018-01-15T13:31:31.877Z,97228.75
2018-01-15T13:34:01.146Z,97209.31
2018-01-15T13:36:29.488Z,97215.03
2018-01-15T13:38:57.830Z,97199.53
2018-01-15T13:41:26.186Z,97185.26
2018-01-15T13:43:54.524Z,97180.13
2018-01-15T13:46:22.880Z,97168.80
2018-01-15T13:48:51.239Z,97167.47
2018-01-15T13:51:19.579Z,97164.19
2018-01-15T13:53:47.914Z,97154.06
2018-01-15T13:56:16.234Z,97153.97
2018-01-15T13:58:44.572Z,97137.16
2018-01-15T14:01:12.950Z,97134.20
2018-01-15T14:03:41.284Z,97120.28
2018-01-15T14:06:09.606Z,97113.14
2018-01-15T14:08:37.956Z,97101.30
2018-01-15T14:11:06.298Z,97088.23
2018-01-15T14:13:34.639Z,97073.94
2018-01-15T14:16:02.973Z,97064.71
2018-01-15T14:18:31.299Z,97054.13
2018-01-15T14:21:00.160Z,97029.68
2018-01-15T14:23:28.474Z,97038.63
2018-01-15T14:25:56.816Z,97026.03
2018-01-15T14:28:26.050Z,97019.78
2018-01-15T14:30:54.379Z,97010.48
2018-01-15T14:33:22.729Z,97012.55
2018-01-15T14:35:51.088Z,97009.98
2018-01-15T14:38:19.467Z,97003.23
2018-01-15T14:40:47.834Z,96999.02
2018-01-15T14:43:16.154Z,96996.50
2018-01-15T14:45:45.408Z,96999.86
2018-01-15T14:48:13.753Z,97002.83
2018-01-15T14:50:42.096Z,96994.77
2018-01-15T14:53:10.436Z,96987.61
2018-01-15T14:55:38.780Z,96982.96
2018-01-15T14:58:07.993Z,96975.42
2018-01-15T15:00:36.324Z,96963.15
2018-01-15T15:03:04.669Z,96965.28
2018-01-15T15:05:32.990Z,96965.30
2018-01-15T15:08:01.344Z,96966.59
2018-01-15T15:10:30.363Z,96957.69
2018-01-15T15:12:59.259Z,96945.41
2018-01-15T15:15:27.612Z,96934.05
2018-01-15T15:17:56.720Z,96926.02
2018-01-15T15:20:25.078Z,96934.02
2018-01-15T15:22:53.403Z,96915.44
2018-01-15T15:25:21.735Z,96902.34
2018-01-15T15:27:50.081Z,96899.00
2018-01-15T15:30:18.420Z,96888.84
2018-01-15T15:32:46.761Z,96875.34
2018-01-15T15:35:15.091Z,96875.73
2018-01-15T15:37:43.475Z,96865.19
2018-01-15T15:40:11.810Z,96863.09
2018-01-15T15:42:40.155Z,96852.94
2018-01-15T15:45:08.498Z,96856.75
2018-01-15T15:47:36.814Z,96849.97
2018-01-15T15:50:05.134Z,96849.12
2018-01-15T15:52:33.484Z,96850.81
2018-01-15T15:55:01.821Z,96841.11
2018-01-15T15:57:30.141Z,96829.25
2018-01-15T15:59:58.472Z,96817.44
2018-01-15T16:02:26.816Z,96823.77
2018-01-15T16:04:55.926Z,96817.86
2018-01-15T16:07:24.269Z,96807.73
2018-01-15T16:09:52.602Z,96806.46
2018-01-15T16:12:20.938Z,96808.14
2018-01-15T16:14:50.030Z,96804.77
2018-01-15T16:17:18.386Z,96791.27
2018-01-15T16:19:46.722Z,96790.41
2018-01-15T16:22:34.670Z,96786.20
2018-01-15T16:25:03.034Z,96774.78
2018-01-15T16:27:31.370Z,96758.76
2018-01-15T16:29:59.693Z,96744.83
2018-01-15T16:32:28.071Z,96743.98
2018-01-15T16:34:56.427Z,96744.38
2018-01-15T16:37:24.789Z,96738.48
2018-01-15T16:39:53.147Z,96738.89
2018-01-15T16:42:21.492Z,96730.03
2018-01-15T16:44:49.832Z,96724.11
2018-01-15T16:47:18.958Z,96712.73
2018-01-15T16:49:47.300Z,96701.75
2018-01-15T16:52:15.638Z,96699.20
2018-01-15T16:54:43.967Z,96684.02
2018-01-15T16:57:12.335Z,96675.11
2018-01-15T16:59:41.450Z,96667.51
2018-01-15T17:02:09.845Z,96667.08
2018-01-15T17:04:38.186Z,96657.38
2018-01-15T17:07:06.535Z,96641.76
2018-01-15T17:09:34.880Z,96615.55
2018-01-15T17:12:03.218Z,96636.61
2018-01-15T17:14:32.311Z,96619.73
2018-01-15T17:17:00.672Z,96613.83
2018-01-15T17:19:29.010Z,96602.45
2018-01-15T17:21:57.325Z,96597.75
2018-01-15T17:24:25.657Z,96591.77
2018-01-15T17:26:53.991Z,96592.21
2018-01-15T17:29:22.379Z,96579.11
2018-01-15T17:31:50.762Z,96561.73
2018-01-15T17:34:19.110Z,96557.05
2018-01-15T17:36:47.447Z,96551.59
2018-01-15T17:39:15.775Z,96535.97
2018-01-15T17:41:44.185Z,96521.54
2018-01-15T17:44:12.562Z,96512.25
2018-01-15T17:46:41.375Z,96510.17
2018-01-15T17:49:09.992Z,96496.66
2018-01-15T17:51:39.741Z,96491.12
2018-01-15T17:54:09.224Z,96483.00
2018-01-15T17:56:39.367Z,96475.86
2018-01-15T17:59:08.433Z,96463.55
2018-01-15T18:01:38.220Z,96460.95
2018-01-15T18:04:07.780Z,96448.64
2018-01-15T18:06:37.220Z,96441.01
2018-01-15T18:09:07.091Z,96429.56
2018-01-15T18:11:36.663Z,96426.58
2018-01-15T18:14:06.471Z,96405.16
2018-01-15T18:16:36.348Z,96400.56
2018-01-15T18:19:06.952Z,96390.97
2018-01-15T18:21:36.468Z,96374.09
2018-01-15T18:24:06.066Z,96376.69
2018-01-15T18:26:35.887Z,96367.77
2018-01-15T18:29:05.377Z,96363.47
2018-01-15T18:31:35.200Z,96362.73
2018-01-15T18:34:05.738Z,96364.34
2018-01-15T18:36:36.277Z,96347.92
2018-01-15T18:39:06.989Z,96342.41
2018-01-15T18:41:37.395Z,96331.52
2018-01-15T18:44:07.223Z,96333.59
2018-01-15T18:46:37.002Z,96329.50
2018-01-15T18:49:06.793Z,96319.75
2018-01-15T18:51:37.015Z,96307.00
2018-01-15T18:54:07.543Z,96317.22
2018-01-15T18:56:37.607Z,96302.49
2018-01-15T18:59:07.440Z,96263.73
2018-01-15T19:01:37.386Z,96284.25
2018-01-15T19:04:07.217Z,96280.38
2018-01-15T19:06:37.056Z,96278.22
2018-01-15T19:09:07.048Z,96270.80
2018-01-15T19:11:36.967Z,96270.77
2018-01-15T19:14:06.918Z,96264.87
2018-01-15T19:16:36.842Z,96262.27
2018-01-15T19:19:06.757Z,96263.52
2018-01-15T19:21:36.637Z,96256.41
2018-01-15T19:24:07.401Z,96255.48
2018-01-15T19:26:38.254Z,96248.20
2018-01-15T19:29:08.385Z,96236.42
2018-01-15T19:31:38.445Z,96230.09
2018-01-15T19:34:08.524Z,96228.53
2018-01-15T19:36:40.103Z,96212.89
2018-01-15T19:39:10.673Z,96215.39
2018-01-15T19:41:40.790Z,96205.70
2018-01-15T19:47:23.538Z,96192.67
2018-01-15T19:49:59.616Z,96190.54
2018-01-15T19:52:34.965Z,96183.67
2018-01-15T19:55:10.166Z,96181.41
2018-01-15T19:57:45.527Z,96171.80
2018-01-15T20:00:20.779Z,96172.70
2018-01-15T20:02:56.054Z,96176.89
2018-01-15T20:05:31.417Z,96158.28
2018-01-15T20:08:06.700Z,96143.44
2018-01-15T20:10:42.117Z,96146.38
2018-01-15T20:13:12.144Z,96131.29
2018-01-15T20:15:43.617Z,96129.06
2018-01-15T20:18:13.564Z,96129.98
2018-01-15T20:20:43.383Z,96121.01
2018-01-15T20:23:13.415Z,96115.50
2018-01-15T20:25:43.297Z,96123.99
2018-01-15T20:28:13.345Z,96121.01
2018-01-15T20:30:43.289Z,96132.32
2018-01-15T20:33:13.242Z,96120.99
2018-01-15T20:35:43.040Z,96118.48
2018-01-15T20:38:13.038Z,96106.56
2018-01-15T20:40:43.103Z,96103.19
2018-01-15T20:43:13.674Z,96098.98
2018-01-15T20:45:44.325Z,96091.30
2018-01-15T20:48:14.302Z,96081.97
2018-01-15T20:50:44.703Z,96083.83
2018-01-15T20:53:14.556Z,96073.13
2018-01-15T20:55:45.949Z,96060.89
2018-01-15T20:58:15.849Z,96049.42
2018-01-15T21:00:45.727Z,96049.39
2018-01-15T21:03:15.725Z,96044.71
2018-01-15T21:05:46.325Z,96041.69
2018-01-15T21:08:17.180Z,96039.64
2018-01-15T21:10:47.231Z,96044.05
2018-01-15T21:13:21.000Z,96031.59
2018-01-15T21:15:50.856Z,96024.41
2018-01-15T21:18:21.596Z,96017.64
2018-01-15T21:20:51.470Z,96020.42
2018-01-15T21:23:21.436Z,96004.41
2018-01-15T21:25:51.346Z,96001.95
2018-01-15T21:28:21.214Z,95994.51
2018-01-15T21:30:51.083Z,96001.13
2018-01-15T21:33:22.413Z,95985.06
2018-01-15T21:35:53.032Z,95981.72
2018-01-15T21:38:23.130Z,95965.12
2018-01-15T21:40:53.045Z,95976.32
2018-01-15T21:43:22.923Z,95967.62
2018-01-15T21:45:52.803Z,95966.75
2018-01-15T21:48:22.781Z,95963.59
2018-01-15T21:50:52.629Z,95967.59
2018-01-15T21:53:23.758Z,95960.27
2018-01-15T21:55:54.651Z,95949.97
2018-01-15T21:58:24.510Z,95953.36
2018-01-15T22:00:54.211Z,95958.00
2018-01-15T22:03:24.026Z,95939.27
2018-01-15T22:05:53.852Z,95935.84
2018-01-15T22:08:23.732Z,95938.20
2018-01-15T22:10:53.870Z,95941.89
2018-01-15T22:13:23.692Z,95936.02
2018-01-15T22:15:55.433Z,95927.92
2018-01-15T22:18:25.290Z,95928.94
2018-01-15T22:20:54.853Z,95927.16
2018-01-15T22:23:25.453Z,95926.91
2018-01-15T22:25:54.757Z,95921.02
2018-01-15T22:28:23.441Z,95923.95
2018-01-15T22:30:53.816Z,95922.87
2018-01-15T22:33:22.274Z,95924.19
2018-01-15T22:35:51.419Z,95921.30
2018-01-15T22:38:19.756Z,95912.78
2018-01-15T22:40:48.101Z,95918.94
2018-01-15T22:43:16.451Z,95915.08
2018-01-15T22:45:44.775Z,95914.09
2018-01-15T22:48:13.122Z,95906.98
2018-01-15T22:50:41.454Z,95910.45
2018-01-15T22:53:09.778Z,95915.52
2018-01-15T22:55:38.103Z,95905.98
2018-01-15T22:58:06.425Z,95900.52
2018-01-15T23:00:34.752Z,95901.50
2018-01-15T23:03:03.857Z,95900.26
2018-01-15T23:05:32.177Z,95902.95
2018-01-15T23:08:00.518Z,95893.37
2018-01-15T23:10:28.883Z,95895.27
2018-01-15T23:12:57.241Z,95893.11
2018-01-15T23:15:25.604Z,95896.23
2018-01-15T23:17:54.061Z,95892.18
2018-01-15T23:20:22.394Z,95894.30
2018-01-15T23:22:51.498Z,95882.08
2018-01-15T23:25:19.849Z,95886.83
2018-01-15T23:27:48.191Z,95882.54
2018-01-15T23:30:16.528Z,95872.73
2018-01-15T23:32:45.630Z,95873.52
2018-01-15T23:35:13.977Z,95869.42
2018-01-15T23:37:42.328Z,95874.05
2018-01-15T23:40:10.663Z,95875.09
2018-01-15T23:42:39.764Z,95873.98
2018-01-15T23:45:08.101Z,95874.36
2018-01-15T23:47:36.451Z,95885.28
2018-01-15T23:50:05.227Z,95879.87
2018-01-15T23:52:33.573Z,95883.46
2018-01-15T23:55:02.676Z,95884.17
2018-01-15T23:57:31.785Z,95881.55
